Time;durP1;ratioP1;P1;durP2;ratioP2;P2;SDS_P1;SDS_P2;PMS_P1;PMS_P2;Temp;Humidity;BMP_temperature;BMP_pressure;BME280_temperature;BME280_humidity;BME280_pressure;Samples;Min_cycle;Max_cycle;Signal;HPM_P1;HPM_P2
2022/08/23 00:02:14;;;;;;;3.95;3.65;;;;;;;18.28;63.99;98136.97;5050925;28;21072;-88
2022/08/23 00:04:50;;;;;;;5.70;3.80;;;;;;;18.27;63.88;98130.06;5049419;28;20041;-87
2022/08/23 00:07:36;;;;;;;4.78;3.55;;;;;;;18.29;63.66;98134.09;5046897;28;20873;-87
2022/08/23 00:10:07;;;;;;;4.53;3.88;;;;;;;18.21;64.84;98129.19;5053616;28;20052;-87
2022/08/23 00:12:52;;;;;;;3.47;3.22;;;;;;;18.23;64.66;98136.91;5046513;28;20041;-88
2022/08/23 00:15:20;;;;;;;4.55;3.83;;;;;;;18.21;64.76;98137.16;5041440;28;20095;-87
2022/08/23 00:17:46;;;;;;;4.68;4.20;;;;;;;18.06;65.58;98134.34;5051980;28;20048;-87
2022/08/23 00:20:17;;;;;;;5.13;4.28;;;;;;;17.83;66.31;98130.84;5061805;28;20406;-86
2022/08/23 00:22:44;;;;;;;5.88;5.25;;;;;;;17.56;66.33;98132.56;5050121;28;20045;-86
2022/08/23 00:25:13;;;;;;;4.80;4.40;;;;;;;17.53;66.73;98125.09;5043558;28;20110;-88
2022/08/23 00:27:40;;;;;;;4.43;4.13;;;;;;;17.53;66.70;98119.78;5035957;28;20454;-87
2022/08/23 00:30:11;;;;;;;4.38;4.05;;;;;;;17.59;66.91;98119.63;5069016;28;20091;-87
2022/08/23 00:32:40;;;;;;;4.55;4.22;;;;;;;17.60;67.97;98123.06;5060301;28;20404;-87
2022/08/23 00:35:10;;;;;;;4.57;4.18;;;;;;;17.61;67.81;98116.72;5063038;28;20088;-87
2022/08/23 00:37:37;;;;;;;5.10;4.60;;;;;;;17.64;68.03;98122.34;5055627;28;20092;-87
2022/08/23 00:40:12;;;;;;;4.30;3.80;;;;;;;17.71;67.48;98127.47;5034694;28;20068;-87
2022/08/23 00:49:03;;;;;;;5.32;4.25;;;;;;;17.60;67.31;98121.22;5042914;28;20093;-87
2022/08/23 00:51:40;;;;;;;5.00;4.55;;;;;;;17.59;67.58;98116.97;5059993;28;20155;-87
2022/08/23 00:54:23;;;;;;;5.05;4.55;;;;;;;17.60;67.48;98121.22;5059789;28;20491;-87
2022/08/23 00:56:51;;;;;;;4.78;4.38;;;;;;;17.62;67.45;98134.22;5057478;28;20442;-87
2022/08/23 00:59:18;;;;;;;4.93;4.53;;;;;;;17.57;67.28;98128.84;5066813;28;20049;-87
2022/08/23 01:01:44;;;;;;;5.50;5.10;;;;;;;17.57;67.06;98136.81;5040335;28;20064;-87
2022/08/23 01:04:12;;;;;;;4.90;4.50;;;;;;;17.51;66.96;98128.00;5072200;28;20068;-87
2022/08/23 01:07:07;;;;;;;4.70;4.40;;;;;;;17.38;67.15;98129.13;5072921;28;20037;-87
2022/08/23 01:09:38;;;;;;;5.40;5.00;;;;;;;17.28;67.55;98138.78;5062177;28;20045;-87
2022/08/23 01:12:15;;;;;;;6.00;5.45;;;;;;;17.02;68.24;98137.56;5046221;28;20052;-86
2022/08/23 01:14:58;;;;;;;5.97;5.47;;;;;;;16.85;69.19;98151.59;5041573;28;20038;-87
2022/08/23 01:17:35;;;;;;;6.40;5.97;;;;;;;16.62;69.69;98143.72;5048319;28;20034;-87
2022/08/23 01:20:09;;;;;;;6.35;5.60;;;;;;;16.54;70.11;98144.91;5047795;28;20068;-87
2022/08/23 01:22:57;;;;;;;6.10;5.60;;;;;;;16.52;70.11;98151.47;5055780;28;20089;-87
2022/08/23 01:25:29;;;;;;;6.07;5.30;;;;;;;16.60;69.89;98143.16;5073535;28;20075;-87
2022/08/23 01:27:56;;;;;;;4.78;4.47;;;;;;;16.67;70.25;98143.00;5072901;28;20098;-86
2022/08/23 01:30:30;;;;;;;5.35;4.95;;;;;;;16.82;69.79;98160.00;5073236;28;20105;-87
2022/08/23 01:33:02;;;;;;;5.25;4.60;;;;;;;16.89;69.62;98154.56;5070275;28;20049;-87
2022/08/23 01:35:46;;;;;;;5.78;5.25;;;;;;;16.88;69.42;98160.91;5040284;28;20072;-87
2022/08/23 01:38:14;;;;;;;5.20;4.80;;;;;;;16.91;69.47;98162.25;5037891;28;20072;-87
2022/08/23 01:40:42;;;;;;;4.95;4.35;;;;;;;16.94;69.06;98159.16;5032739;28;20050;-87
2022/08/23 01:43:09;;;;;;;6.47;5.88;;;;;;;16.80;69.56;98159.44;5052122;28;20080;-87
2022/08/23 01:45:36;;;;;;;7.85;7.13;;;;;;;16.40;70.23;98169.25;5032734;28;20071;-86
2022/08/23 01:48:05;;;;;;;6.97;6.43;;;;;;;16.08;71.50;98159.09;5032400;28;20087;-86
2022/08/23 01:50:33;;;;;;;6.70;6.20;;;;;;;16.02;72.06;98160.03;5058179;28;20100;-87
2022/08/23 01:53:00;;;;;;;6.20;5.70;;;;;;;16.01;72.50;98153.09;5071092;28;20048;-87
2022/08/23 01:55:27;;;;;;;5.85;5.35;;;;;;;16.06;72.23;98159.31;5070990;28;20071;-87
2022/08/23 01:57:59;;;;;;;5.22;4.60;;;;;;;16.18;72.58;98151.34;5088411;28;20071;-87
2022/08/23 02:00:34;;;;;;;5.18;4.78;;;;;;;16.31;71.91;98148.44;5032644;28;20045;-87
2022/08/23 02:03:02;;;;;;;5.00;4.60;;;;;;;16.42;72.05;98152.06;5050987;28;20080;-86
2022/08/23 02:05:29;;;;;;;5.40;5.00;;;;;;;16.45;71.50;98145.53;5061524;28;20049;-86
2022/08/23 02:08:59;;;;;;;5.60;5.10;;;;;;;16.48;71.08;98152.97;5034986;28;20537;-86
2022/08/23 02:10:43;;;;;;;5.70;5.30;;;;;;;16.47;70.92;98149.53;5030374;28;20080;-87
2022/08/23 02:13:11;;;;;;;5.00;4.60;;;;;;;16.51;70.45;98149.88;5041210;28;20037;-87
2022/08/23 02:15:45;;;;;;;7.50;5.32;;;;;;;16.60;70.39;98164.31;5052221;28;20072;-87
2022/08/23 02:18:12;;;;;;;5.38;4.97;;;;;;;16.42;70.38;98151.28;5037253;28;20046;-86
2022/08/23 02:20:48;;;;;;;5.88;5.47;;;;;;;16.24;71.43;98158.34;5068797;28;20446;-86
2022/08/23 02:23:16;;;;;;;5.95;5.47;;;;;;;16.13;71.59;98163.66;5052584;28;20401;-86
2022/08/23 02:25:43;;;;;;;5.90;5.40;;;;;;;16.15;72.18;98161.59;5052076;28;20140;-86
2022/08/23 02:28:10;;;;;;;6.07;5.47;;;;;;;16.23;72.54;98159.38;5059220;28;20038;-86
2022/08/23 02:30:38;;;;;;;8.55;5.50;;;;;;;16.21;71.66;98161.47;5029718;28;20083;-86
2022/08/23 02:33:06;;;;;;;7.88;5.97;;;;;;;15.99;71.82;98147.25;5070235;28;20052;-86
2022/08/23 02:35:32;;;;;;;6.85;6.20;;;;;;;15.91;72.29;98155.56;5057858;28;20157;-87
2022/08/23 02:38:09;;;;;;;5.90;5.40;;;;;;;15.87;72.80;98157.03;5066178;28;20116;-86
2022/08/23 02:40:36;;;;;;;4.80;4.40;;;;;;;16.03;72.66;98164.28;5070022;28;20048;-86
2022/08/23 02:43:05;;;;;;;5.75;5.18;;;;;;;16.12;72.13;98154.13;5055477;28;20450;-87
2022/08/23 02:45:32;;;;;;;5.88;5.38;;;;;;;16.10;71.92;98158.84;5070803;28;20074;-86
2022/08/23 02:48:00;;;;;;;6.40;5.80;;;;;;;15.99;71.78;98163.13;5062026;28;20086;-87
2022/08/23 02:50:27;;;;;;;5.75;5.25;;;;;;;15.99;72.58;98163.13;5051298;28;20045;-86
2022/08/23 02:52:56;;;;;;;5.80;5.38;;;;;;;16.04;73.00;98160.59;5050220;28;20044;-86
2022/08/23 02:55:23;;;;;;;6.28;5.07;;;;;;;15.96;72.18;98160.97;5049149;28;20127;-86
2022/08/23 02:57:50;;;;;;;7.03;6.53;;;;;;;15.83;72.14;98158.53;5046202;28;20068;-86
2022/08/23 03:00:18;;;;;;;6.97;5.72;;;;;;;15.67;73.31;98165.34;5039661;28;20041;-86
2022/08/23 03:02:45;;;;;;;7.32;6.00;;;;;;;15.55;73.51;98162.66;5040709;28;20091;-86
2022/08/23 03:05:14;;;;;;;6.35;5.72;;;;;;;15.62;73.68;98160.75;5042366;28;20091;-87
2022/08/23 03:07:43;;;;;;;6.93;6.22;;;;;;;15.60;73.37;98160.13;5051488;28;20072;-87
2022/08/23 03:10:11;;;;;;;7.13;6.32;;;;;;;15.36;73.96;98147.94;5039226;28;20045;-86
2022/08/23 03:12:40;;;;;;;6.55;6.05;;;;;;;15.29;74.38;98148.03;5043271;28;20124;-86
2022/08/23 03:15:08;;;;;;;7.05;6.45;;;;;;;15.24;74.87;98161.16;5039893;28;20083;-86
2022/08/23 03:17:35;;;;;;;7.50;6.88;;;;;;;15.07;75.36;98166.28;5042676;28;20073;-86
2022/08/23 03:20:02;;;;;;;7.03;6.32;;;;;;;15.00;75.76;98165.59;5050158;28;20547;-87
2022/08/23 03:22:29;;;;;;;7.38;6.70;;;;;;;14.94;75.70;98177.06;5050633;28;20080;-86
2022/08/23 03:24:56;;;;;;;6.78;6.28;;;;;;;14.87;76.57;98161.31;5031006;28;20080;-87
2022/08/23 03:27:23;;;;;;;6.00;5.40;;;;;;;15.08;76.74;98157.31;5050294;28;20041;-86
2022/08/23 03:29:49;;;;;;;5.70;5.20;;;;;;;15.25;76.49;98163.56;5061880;28;20416;-85
2022/08/23 03:32:16;;;;;;;5.75;5.25;;;;;;;15.37;75.57;98157.47;5061475;28;20037;-87
2022/08/23 03:34:44;;;;;;;5.90;5.43;;;;;;;15.44;75.17;98156.34;5054061;28;20036;-86
2022/08/23 03:37:11;;;;;;;8.50;6.05;;;;;;;15.52;74.59;98163.91;5070199;28;20154;-86
2022/08/23 03:39:37;;;;;;;6.22;5.68;;;;;;;15.60;74.96;98169.91;5028792;28;20805;-86
2022/08/23 03:42:05;;;;;;;7.35;5.90;;;;;;;15.65;74.07;98168.22;5032860;28;20481;-87
2022/08/23 03:44:32;;;;;;;5.97;5.47;;;;;;;15.68;74.23;98169.59;5029859;28;20071;-86
2022/08/23 03:46:59;;;;;;;6.50;5.90;;;;;;;15.61;74.04;98174.16;5067707;28;20429;-86
2022/08/23 03:49:26;;;;;;;5.85;5.32;;;;;;;15.67;74.07;98179.38;5070330;28;20188;-87
2022/08/23 03:51:53;;;;;;;5.80;5.40;;;;;;;15.71;74.16;98177.88;5065181;28;20114;-86
2022/08/23 03:54:19;;;;;;;5.85;5.32;;;;;;;15.71;73.65;98169.94;5039533;28;20084;-87
2022/08/23 03:57:01;;;;;;;5.90;5.40;;;;;;;15.72;73.45;98170.75;5048886;28;20043;-86
2022/08/23 03:59:31;;;;;;;6.50;5.90;;;;;;;15.75;73.40;98163.13;5048439;28;20451;-87
2022/08/23 04:01:58;;;;;;;6.25;5.63;;;;;;;15.74;73.45;98173.97;5039912;28;20124;-87
2022/08/23 04:04:26;;;;;;;5.50;5.00;;;;;;;15.73;72.98;98169.72;5040425;28;20045;-88
2022/08/23 04:06:54;;;;;;;5.95;5.43;;;;;;;15.74;73.02;98177.41;5034621;28;20040;-87
2022/08/23 04:09:21;;;;;;;6.30;5.70;;;;;;;15.72;72.44;98181.31;5041241;28;20045;-86
2022/08/23 04:12:01;;;;;;;7.32;6.72;;;;;;;15.33;73.20;98180.09;5068253;28;20048;-86
2022/08/23 04:14:27;;;;;;;7.72;7.03;;;;;;;15.08;74.32;98182.94;5070273;28;20115;-86
2022/08/23 04:16:54;;;;;;;7.07;6.47;;;;;;;14.94;74.70;98177.84;5069711;28;20056;-86
2022/08/23 04:19:22;;;;;;;7.43;6.88;;;;;;;14.72;75.46;98180.19;5069864;28;20048;-87
2022/08/23 04:21:51;;;;;;;7.93;7.22;;;;;;;14.48;76.66;98178.47;5068696;28;20527;-86
2022/08/23 04:24:19;;;;;;;8.15;7.47;;;;;;;14.40;77.08;98191.94;5042945;28;20049;-86
2022/08/23 04:26:47;;;;;;;7.35;6.65;;;;;;;14.40;77.51;98195.38;5033176;28;20919;-86
2022/08/23 04:29:16;;;;;;;5.80;5.30;;;;;;;14.48;77.55;98186.38;5065041;28;20068;-86
2022/08/23 04:32:04;;;;;;;7.05;6.40;;;;;;;14.58;76.95;98189.31;5056660;28;20095;-86
2022/08/23 04:34:41;;;;;;;6.47;5.85;;;;;;;14.51;77.01;98187.75;5033387;28;20076;-86
2022/08/23 04:37:17;;;;;;;7.65;7.05;;;;;;;14.45;76.77;98199.97;5056445;28;20064;-86
2022/08/23 04:42:29;;;;;;;5.97;5.50;;;;;;;14.51;77.38;98187.75;5033817;28;20137;-86
2022/08/23 04:44:56;;;;;;;7.63;5.63;;;;;;;14.64;77.37;98198.97;5045075;28;20065;-86
2022/08/23 04:47:23;;;;;;;5.70;5.20;;;;;;;14.73;77.02;98205.53;5034566;28;20432;-86
2022/08/23 04:49:49;;;;;;;5.85;5.38;;;;;;;14.92;76.53;98208.13;5042519;28;20136;-86
2022/08/23 04:52:16;;;;;;;5.93;5.35;;;;;;;14.94;76.26;98219.31;5067730;28;20062;-87
2022/08/23 04:54:45;;;;;;;5.90;5.40;;;;;;;15.01;76.28;98224.50;5060551;28;20061;-87
2022/08/23 04:57:14;;;;;;;6.30;5.68;;;;;;;15.07;76.16;98221.75;5071209;28;20094;-87
2022/08/23 04:59:41;;;;;;;6.60;6.00;;;;;;;15.05;75.83;98215.88;5071846;28;20044;-86
2022/08/23 05:02:08;;;;;;;7.70;5.70;;;;;;;15.08;75.71;98226.00;5047460;28;20481;-87
2022/08/23 05:04:35;;;;;;;6.15;5.65;;;;;;;15.15;75.49;98225.91;5041429;28;20041;-87
2022/08/23 05:07:02;;;;;;;5.55;5.15;;;;;;;15.20;75.16;98226.84;5042272;28;20091;-87
2022/08/23 05:09:29;;;;;;;6.03;5.43;;;;;;;15.25;74.27;98236.75;5056784;28;20125;-87
2022/08/23 05:12:08;;;;;;;5.90;5.40;;;;;;;15.13;74.67;98234.06;5046880;28;20100;-86
2022/08/23 05:14:35;;;;;;;6.70;6.20;;;;;;;14.99;75.47;98222.06;5052266;28;20074;-86
2022/08/23 05:17:02;;;;;;;5.28;4.88;;;;;;;14.92;75.56;98226.63;5045811;28;20044;-86
2022/08/23 05:19:29;;;;;;;5.95;5.45;;;;;;;14.97;75.80;98237.31;5051323;28;20040;-87
2022/08/23 05:21:56;;;;;;;6.25;5.75;;;;;;;14.94;75.60;98240.44;5056376;28;20049;-86
2022/08/23 05:24:23;;;;;;;7.22;6.63;;;;;;;14.79;76.46;98245.28;5072415;28;20041;-86
2022/08/23 05:26:49;;;;;;;7.72;7.03;;;;;;;14.49;77.01;98221.50;5072708;28;20037;-86
2022/08/23 05:29:16;;;;;;;7.97;7.18;;;;;;;14.50;77.72;98250.28;5056213;28;20041;-87
2022/08/23 05:31:43;;;;;;;6.82;6.18;;;;;;;14.38;78.47;98247.56;5051211;28;20455;-88
2022/08/23 05:34:13;;;;;;;5.80;5.30;;;;;;;14.62;78.20;98250.38;5051569;28;20048;-87
2022/08/23 05:36:40;;;;;;;5.60;5.20;;;;;;;14.86;78.03;98265.28;5055381;28;20500;-87
2022/08/23 05:39:21;;;;;;;5.90;5.43;;;;;;;15.02;77.24;98253.31;5042417;28;20068;-85
2022/08/23 05:42:03;;;;;;;6.03;5.53;;;;;;;15.17;76.89;98255.53;5032590;28;20048;-87
2022/08/23 05:44:30;;;;;;;5.70;5.30;;;;;;;15.33;75.96;98259.38;5034969;28;20076;-87
2022/08/23 05:47:06;;;;;;;7.07;5.45;;;;;;;15.44;75.47;98266.53;5070814;28;20044;-88
2022/08/23 05:49:38;;;;;;;6.90;5.95;;;;;;;15.50;75.86;98261.16;5069365;28;20084;-87
2022/08/23 05:52:08;;;;;;;8.52;7.53;;;;;;;15.43;74.66;98265.72;5070817;28;20099;-87
2022/08/23 05:54:35;;;;;;;6.93;6.32;;;;;;;15.36;75.04;98259.75;5071077;28;20507;-87
2022/08/23 05:57:02;;;;;;;6.55;6.05;;;;;;;15.39;76.07;98274.34;5066589;28;20057;-87
2022/08/23 05:59:29;;;;;;;6.50;6.00;;;;;;;15.47;75.45;98276.63;5050393;28;20602;-87
2022/08/23 06:01:56;;;;;;;7.45;6.78;;;;;;;15.37;75.68;98271.13;5047148;28;20127;-87
2022/08/23 06:04:22;;;;;;;7.53;6.82;;;;;;;15.32;76.48;98274.44;5041707;28;20131;-87
2022/08/23 06:06:49;;;;;;;6.05;5.57;;;;;;;15.40;77.37;98270.66;5058265;28;20074;-87
2022/08/23 06:09:18;;;;;;;6.32;5.82;;;;;;;15.59;76.90;98280.13;5046399;28;20100;-88
2022/08/23 06:11:50;;;;;;;6.35;5.85;;;;;;;15.78;75.90;98276.41;5043132;28;20091;-88
2022/08/23 06:14:16;;;;;;;5.78;5.28;;;;;;;15.87;76.02;98263.63;5067078;28;20045;-87
2022/08/23 06:16:47;;;;;;;4.65;4.35;;;;;;;16.12;73.80;98281.91;5067006;28;20045;-87
2022/08/23 06:19:19;;;;;;;5.85;5.30;;;;;;;16.19;72.72;98274.69;5043222;28;20099;-87
2022/08/23 06:21:47;;;;;;;7.00;6.30;;;;;;;16.24;71.19;98277.44;5059229;28;20094;-87
2022/08/23 06:24:13;;;;;;;6.00;5.40;;;;;;;16.46;73.82;98284.78;5051048;28;20415;-87
2022/08/23 06:26:44;;;;;;;5.60;5.20;;;;;;;16.67;73.45;98286.81;5032949;28;20080;-88
2022/08/23 06:29:18;;;;;;;5.43;5.03;;;;;;;16.84;73.67;98287.72;5047085;28;20122;-87
2022/08/23 06:31:49;;;;;;;5.55;5.15;;;;;;;16.99;71.23;98295.16;5031576;28;20838;-88
2022/08/23 06:34:16;;;;;;;5.10;4.70;;;;;;;17.16;72.04;98295.22;5048881;28;20098;-88
2022/08/23 06:36:45;;;;;;;5.20;4.80;;;;;;;17.24;70.90;98291.38;5071340;28;20491;-88
2022/08/23 06:39:13;;;;;;;4.93;4.53;;;;;;;17.35;68.42;98293.97;5064979;28;20559;-87
2022/08/23 06:41:40;;;;;;;5.35;4.95;;;;;;;17.35;67.81;98286.03;5045058;28;20056;-87
2022/08/23 06:44:07;;;;;;;4.78;4.38;;;;;;;17.51;68.39;98296.88;5045361;28;20102;-88
2022/08/23 06:46:37;;;;;;;5.75;5.22;;;;;;;17.44;69.47;98297.03;5031553;28;20045;-87
2022/08/23 06:49:06;;;;;;;5.40;4.97;;;;;;;17.43;69.13;98284.03;5043904;28;20531;-87
2022/08/23 06:51:40;;;;;;;5.57;5.07;;;;;;;17.57;69.88;98286.13;5059997;28;20033;-88
2022/08/23 06:54:13;;;;;;;5.38;4.80;;;;;;;17.72;69.01;98282.94;5046209;28;20049;-89
2022/08/23 06:56:42;;;;;;;4.88;4.47;;;;;;;17.95;68.42;98287.28;5030952;28;20076;-88
2022/08/23 06:59:10;;;;;;;5.50;5.10;;;;;;;18.11;67.20;98281.19;5043699;28;20131;-88
2022/08/23 07:02:04;;;;;;;6.10;5.57;;;;;;;18.27;66.21;98279.53;5046382;28;20079;-87
2022/08/23 07:04:36;;;;;;;5.22;4.82;;;;;;;18.45;69.00;98287.19;5062088;28;20112;-87
2022/08/23 07:07:05;;;;;;;6.28;5.72;;;;;;;18.57;66.52;98294.25;5029748;28;20069;-89
2022/08/23 07:09:39;;;;;;;5.47;4.97;;;;;;;18.69;68.30;98293.13;5058720;28;20152;-88
2022/08/23 07:12:24;;;;;;;5.80;5.07;;;;;;;18.80;65.66;98293.25;5045217;28;20052;-88
2022/08/23 07:14:56;;;;;;;8.73;5.03;;;;;;;18.92;64.69;98297.38;5030025;28;20061;-88
2022/08/23 07:17:24;;;;;;;5.40;4.88;;;;;;;19.10;65.11;98300.78;5035789;28;20439;-88
2022/08/23 07:19:51;;;;;;;4.85;4.35;;;;;;;19.23;65.87;98295.06;5057238;28;20124;-88
2022/08/23 07:22:19;;;;;;;6.38;4.63;;;;;;;19.36;65.79;98297.31;5054722;28;20075;-87
2022/08/23 07:24:45;;;;;;;8.18;5.45;;;;;;;19.48;65.38;98297.16;5070596;28;20068;-88
2022/08/23 07:27:12;;;;;;;5.20;4.70;;;;;;;19.55;60.83;98299.59;5065235;28;20497;-87
2022/08/23 07:29:39;;;;;;;4.90;4.47;;;;;;;19.58;61.64;98288.47;5038919;28;20072;-87
2022/08/23 07:32:08;;;;;;;4.10;3.80;;;;;;;19.76;63.46;98299.56;5032535;28;20508;-87
2022/08/23 07:34:35;;;;;;;4.28;3.85;;;;;;;19.90;61.85;98304.47;5042128;28;20511;-88
2022/08/23 07:37:03;;;;;;;4.20;3.80;;;;;;;19.99;61.43;98305.59;5036368;28;20072;-88
2022/08/23 07:39:41;;;;;;;5.63;4.47;;;;;;;20.01;61.76;98296.28;5044985;28;20436;-88
2022/08/23 07:42:07;;;;;;;4.25;3.42;;;;;;;20.09;61.78;98284.38;5049752;28;20107;-87
2022/08/23 07:44:50;;;;;;;4.43;4.03;;;;;;;20.30;58.38;98303.94;5069038;28;20118;-88
2022/08/23 07:47:18;;;;;;;4.38;3.30;;;;;;;20.42;59.06;98299.22;5055703;28;20046;-87
2022/08/23 07:49:45;;;;;;;3.70;3.40;;;;;;;20.48;58.25;98297.41;5069215;28;20537;-87
2022/08/23 07:52:12;;;;;;;3.60;3.30;;;;;;;20.60;57.43;98290.00;5050572;28;20144;-87
2022/08/23 07:54:39;;;;;;;3.60;3.28;;;;;;;20.71;56.28;98296.19;5052856;28;20090;-87
2022/08/23 07:57:08;;;;;;;4.17;3.23;;;;;;;20.83;57.97;98299.44;5053063;28;20049;-86
2022/08/23 07:59:35;;;;;;;2.83;2.63;;;;;;;20.98;56.98;98306.69;5041716;28;20072;-83
2022/08/23 08:02:02;;;;;;;2.83;2.63;;;;;;;21.17;58.38;98305.16;5041416;28;20055;-83
2022/08/23 08:04:29;;;;;;;3.42;3.13;;;;;;;21.29;57.98;98302.25;5038085;28;20404;-85
2022/08/23 08:06:57;;;;;;;3.80;3.40;;;;;;;21.28;54.69;98305.97;5049182;28;20624;-84
2022/08/23 08:09:44;;;;;;;3.92;3.30;;;;;;;21.36;53.78;98300.97;5059115;28;20053;-84
2022/08/23 08:12:18;;;;;;;3.45;3.15;;;;;;;21.50;54.14;98298.56;5049731;28;20098;-84
2022/08/23 08:14:47;;;;;;;2.83;2.63;;;;;;;21.73;55.52;98309.81;5063488;28;20069;-85
2022/08/23 08:17:16;;;;;;;3.50;3.20;;;;;;;21.71;53.58;98306.56;5052285;28;20054;-86
2022/08/23 08:19:44;;;;;;;2.40;2.20;;;;;;;21.94;55.27;98308.72;5071655;28;20070;-85
2022/08/23 08:22:11;;;;;;;2.78;2.58;;;;;;;21.99;53.67;98306.06;5044711;28;20041;-84
2022/08/23 08:24:39;;;;;;;2.85;2.53;;;;;;;22.14;52.30;98319.44;5054736;28;20495;-85
2022/08/23 08:27:07;;;;;;;3.40;2.58;;;;;;;22.11;51.71;98319.97;5057012;28;20069;-86
2022/08/23 08:29:33;;;;;;;3.50;2.30;;;;;;;22.04;50.73;98314.06;5056016;28;20068;-87
2022/08/23 08:32:00;;;;;;;2.92;2.55;;;;;;;22.12;50.72;98310.88;5056588;28;20079;-86
2022/08/23 08:34:27;;;;;;;3.40;2.30;;;;;;;22.31;50.82;98312.97;5042557;28;20049;-86
2022/08/23 08:36:57;;;;;;;2.33;2.13;;;;;;;22.53;49.94;98310.00;5063319;28;20127;-85
2022/08/23 08:39:31;;;;;;;2.15;1.95;;;;;;;22.59;49.97;98312.38;5057094;28;20053;-85
2022/08/23 08:42:30;;;;;;;2.33;2.13;;;;;;;22.67;48.93;98311.00;5066287;28;20076;-85
2022/08/23 08:45:04;;;;;;;2.35;2.08;;;;;;;22.80;48.07;98309.66;5036146;28;20622;-87
2022/08/23 08:47:49;;;;;;;2.00;1.60;;;;;;;23.04;49.37;98315.19;5044891;28;20076;-85
2022/08/23 08:50:40;;;;;;;1.73;1.63;;;;;;;23.18;48.24;98322.31;5049154;28;20123;-85
2022/08/23 08:53:30;;;;;;;2.58;1.80;;;;;;;23.24;47.90;98302.50;5056888;28;20769;-86
2022/08/23 08:56:06;;;;;;;2.00;1.90;;;;;;;23.33;48.23;98304.56;5051813;28;20044;-86
2022/08/23 08:59:05;;;;;;;2.22;1.95;;;;;;;23.39;48.24;98306.13;5046289;28;20064;-85
2022/08/23 09:01:36;;;;;;;2.10;1.80;;;;;;;23.48;44.03;98313.31;5073957;28;20427;-84
2022/08/23 09:04:05;;;;;;;1.80;1.70;;;;;;;23.62;45.66;98316.19;5092531;28;20612;-85
2022/08/23 09:07:01;;;;;;;2.10;2.00;;;;;;;23.69;45.25;98316.69;5068523;28;20077;-85
2022/08/23 09:09:52;;;;;;;3.88;1.80;;;;;;;23.73;44.19;98317.72;5033566;28;20566;-85
2022/08/23 09:12:48;;;;;;;3.78;1.83;;;;;;;23.74;43.86;98321.19;5038584;28;20044;-85
2022/08/23 09:15:31;;;;;;;2.60;1.98;;;;;;;23.54;43.25;98314.09;5056608;28;20497;-85
2022/08/23 09:18:14;;;;;;;1.70;1.60;;;;;;;23.54;46.18;98315.97;5062967;28;20047;-85
2022/08/23 09:20:45;;;;;;;1.70;1.60;;;;;;;23.54;43.80;98314.09;5068268;28;20476;-84
2022/08/23 09:23:33;;;;;;;1.40;1.30;;;;;;;23.76;44.42;98321.72;5047343;28;20104;-85
2022/08/23 09:26:31;;;;;;;2.00;1.80;;;;;;;23.82;44.53;98319.81;5054438;28;20492;-85
2022/08/23 09:29:28;;;;;;;1.60;1.50;;;;;;;23.83;42.82;98318.72;5041646;28;20107;-86
2022/08/23 09:32:01;;;;;;;1.50;1.40;;;;;;;23.95;42.28;98308.44;5047065;28;20098;-87
2022/08/23 09:34:36;;;;;;;1.77;1.65;;;;;;;23.90;41.27;98317.31;5051634;28;20099;-86
2022/08/23 09:37:12;;;;;;;1.55;1.40;;;;;;;23.87;40.66;98306.34;5072088;28;20070;-87
2022/08/23 09:39:48;;;;;;;1.73;1.63;;;;;;;23.93;41.68;98310.59;5049203;28;20095;-85
2022/08/23 09:42:38;;;;;;;1.48;1.38;;;;;;;24.03;42.35;98299.78;5055251;28;20052;-88
2022/08/23 09:45:30;;;;;;;1.60;1.20;;;;;;;24.17;42.05;98311.47;5035280;28;20443;-86
2022/08/23 09:48:01;;;;;;;0.90;0.90;;;;;;;24.27;38.77;98299.81;5047686;28;20116;-86
2022/08/23 09:50:38;;;;;;;0.90;0.90;;;;;;;24.35;38.62;98296.56;5052600;28;20051;-85
2022/08/23 09:53:10;;;;;;;1.05;1.05;;;;;;;24.35;40.06;98299.25;5046137;28;20492;-85
2022/08/23 09:55:44;;;;;;;1.63;1.30;;;;;;;24.43;39.33;98297.81;5053299;28;20078;-86
2022/08/23 09:58:35;;;;;;;1.30;1.20;;;;;;;24.48;39.31;98292.41;5066787;28;20052;-86
2022/08/23 10:01:12;;;;;;;1.40;1.30;;;;;;;24.59;37.86;98291.22;5068985;28;20048;-86
2022/08/23 10:03:41;;;;;;;1.00;0.90;;;;;;;24.63;37.39;98292.22;5035509;28;20046;-85
2022/08/23 10:06:14;;;;;;;1.95;0.90;;;;;;;24.69;35.62;98295.66;5032140;28;20050;-84
2022/08/23 10:09:00;;;;;;;0.82;0.70;;;;;;;24.86;36.97;98295.97;5056553;28;20090;-87
2022/08/23 10:11:46;;;;;;;0.82;0.77;;;;;;;24.89;36.94;98299.94;5031440;28;20057;-86
2022/08/23 10:14:21;;;;;;;1.75;1.00;;;;;;;24.90;38.01;98297.00;5065657;28;20100;-88
2022/08/23 10:17:13;;;;;;;;;;;;;;;24.94;37.77;98297.22;5069357;28;20546;-85
2022/08/23 10:20:11;;;;;;;1.10;1.00;;;;;;;25.06;39.70;98295.72;5066476;28;19955;-86
2022/08/23 10:22:57;;;;;;;1.90;1.42;;;;;;;24.95;37.42;98291.59;5056431;28;20037;-85
2022/08/23 10:25:47;;;;;;;2.03;1.40;;;;;;;24.91;39.34;98298.59;5031990;28;20456;-86
2022/08/23 10:32:04;;;;;;;1.40;1.17;;;;;;;25.12;38.18;98284.94;5040014;28;20092;-86
2022/08/23 10:34:50;;;;;;;2.53;1.17;;;;;;;25.18;38.76;98278.41;5038831;28;20111;-85
2022/08/23 10:37:45;;;;;;;1.55;1.45;;;;;;;25.31;38.05;98277.69;5040621;28;20049;-85
2022/08/23 10:40:24;;;;;;;1.30;1.20;;;;;;;25.40;39.92;98272.47;5038264;28;20041;-84
2022/08/23 10:43:14;;;;;;;1.65;1.40;;;;;;;25.41;37.54;98263.31;5043373;28;20428;-85
2022/08/23 10:45:45;;;;;;;2.55;1.55;;;;;;;25.47;38.35;98262.13;5038262;28;20104;-85
2022/08/23 10:48:30;;;;;;;1.52;1.35;;;;;;;25.55;38.06;98272.22;5049016;28;20120;-86
2022/08/23 10:51:08;;;;;;;1.67;1.48;;;;;;;25.48;37.29;98269.91;5046459;28;20088;-86
2022/08/23 10:53:55;;;;;;;1.42;1.33;;;;;;;25.63;37.17;98263.50;5033697;28;20240;-85
2022/08/23 10:56:22;;;;;;;1.45;1.35;;;;;;;25.78;38.79;98249.81;5032366;28;20053;-86
2022/08/23 10:58:59;;;;;;;1.50;1.40;;;;;;;25.94;38.17;98257.63;5049120;28;20068;-86
2022/08/23 11:01:46;;;;;;;3.17;1.42;;;;;;;25.98;36.80;98255.97;5052993;28;20115;-88
2022/08/23 11:04:35;;;;;;;1.33;1.33;;;;;;;26.01;37.70;98252.66;5061777;28;20472;-87
2022/08/23 11:07:19;;;;;;;1.50;1.30;;;;;;;25.96;36.25;98250.06;5048020;28;20045;-86
2022/08/23 11:09:53;;;;;;;2.55;1.27;;;;;;;26.03;36.94;98237.88;5043559;28;20073;-84
2022/08/23 11:12:33;;;;;;;1.58;1.30;;;;;;;26.04;37.44;98238.66;5054992;28;20068;-84
2022/08/23 11:15:06;;;;;;;2.45;1.80;;;;;;;26.05;37.47;98241.03;5064990;28;20545;-84
2022/08/23 11:17:47;;;;;;;1.60;1.50;;;;;;;26.07;35.21;98249.59;5053855;28;20068;-85
2022/08/23 11:20:49;;;;;;;1.73;1.40;;;;;;;26.00;36.29;98243.03;5050232;28;20135;-85
2022/08/23 11:23:35;;;;;;;1.63;1.50;;;;;;;25.99;35.14;98252.19;5054675;28;20095;-87
2022/08/23 11:26:35;;;;;;;1.60;1.50;;;;;;;26.11;37.02;98234.47;5043735;28;20053;-86
2022/08/23 11:29:04;;;;;;;1.40;1.30;;;;;;;26.18;37.41;98249.41;5030416;28;20091;-86
2022/08/23 11:32:12;;;;;;;2.45;1.30;;;;;;;26.26;36.51;98236.06;5057807;28;20516;-85
2022/08/23 11:34:50;;;;;;;1.55;1.45;;;;;;;26.40;37.29;98242.28;5069254;28;20106;-87
2022/08/23 11:37:23;;;;;;;1.40;1.30;;;;;;;26.40;35.55;98239.59;5070341;28;20515;-86
2022/08/23 11:39:58;;;;;;;1.30;1.20;;;;;;;26.39;35.69;98242.56;5043521;28;20041;-85
2022/08/23 11:42:49;;;;;;;1.60;1.50;;;;;;;26.46;35.25;98240.28;5052603;28;20131;-86
2022/08/23 11:45:26;;;;;;;1.40;1.30;;;;;;;26.55;36.56;98235.00;5068691;28;20466;-85
2022/08/23 11:48:17;;;;;;;1.50;1.40;;;;;;;26.51;36.71;98239.38;5063042;28;20045;-86
2022/08/23 11:50:49;;;;;;;2.22;1.40;;;;;;;26.48;34.57;98242.69;5053177;28;20459;-86
2022/08/23 11:54:05;;;;;;;2.08;1.20;;;;;;;26.60;35.63;98232.22;5037533;28;20052;-88
2022/08/23 11:56:57;;;;;;;2.25;1.40;;;;;;;26.62;36.20;98216.56;5041244;28;20420;-88
2022/08/23 12:00:05;;;;;;;2.13;1.20;;;;;;;26.59;33.90;98225.25;5044977;28;20094;-87
2022/08/23 12:02:41;;;;;;;1.77;1.48;;;;;;;26.67;34.89;98229.91;5041522;28;20082;-87
2022/08/23 12:05:31;;;;;;;1.30;1.20;;;;;;;26.68;36.31;98226.09;5043121;28;20077;-85
2022/08/23 12:08:01;;;;;;;2.08;1.60;;;;;;;26.69;34.46;98230.41;5053409;28;20103;-84
2022/08/23 12:10:40;;;;;;;1.73;1.40;;;;;;;26.67;36.57;98225.31;5051158;28;20049;-85
2022/08/23 12:13:19;;;;;;;1.90;1.60;;;;;;;26.68;34.53;98226.09;5068813;28;21754;-86
2022/08/23 12:16:18;;;;;;;1.40;1.30;;;;;;;26.70;38.01;98229.31;5070115;28;20381;-87
2022/08/23 12:18:48;;;;;;;1.40;1.30;;;;;;;26.77;35.09;98213.56;5032542;28;20042;-87